.
WxDataArchive / Data Records for 2016-03-26
2016-03-25 March 2016 2016-03-27

Data Records for Saturday, 26 March 2016

Time	Temp	Chill	HIndex	Humid	Dewpt	 Wind 	HiWind	WindDir	Rain 	Barom
-----	----	-----	------	-----	-----	------	------	-------	-----	-----
00:00	33.7	33.7	33.7	83	29.1	0	0	---	0.00	30.181 
00:05	33.5	33.5	33.5	84	29.2	0	0	---	0.00	30.181 
00:10	33.4	33.4	33.4	84	29.1	0	1	90	0.00	30.181 
00:15	33.4	33.4	33.4	84	29.1	0	0	---	0.00	30.175 
00:20	33.1	33.1	33.1	84	28.8	0	0	---	0.00	30.175 
00:25	32.9	32.9	32.9	84	28.6	0	0	---	0.00	30.175 
00:30	32.7	32.7	32.7	84	28.4	0	0	---	0.00	30.178 
00:35	32.5	32.5	32.5	84	28.2	0	0	---	0.00	30.178 
00:40	32.4	32.4	32.4	84	28.1	0	0	---	0.00	30.178 
00:45	32.1	32.1	32.1	84	27.8	0	0	---	0.00	30.190 
00:50	31.9	31.9	31.9	84	27.6	0	0	---	0.00	30.190 
00:55	31.8	31.8	31.8	85	27.8	0	0	---	0.00	30.190 
01:00	31.5	31.5	31.5	85	27.5	0	0	---	0.00	30.194 
01:05	31.3	31.3	31.3	85	27.3	0	0	---	0.00	30.194 
01:10	31.5	31.5	31.5	86	27.8	0	0	---	0.00	30.194 
01:15	31.5	31.5	31.5	86	27.8	0	0	---	0.00	30.189 
01:20	31.3	31.3	31.3	86	27.6	0	0	---	0.00	30.189 
01:25	31.2	31.2	31.2	86	27.5	0	0	---	0.00	30.189 
01:30	31.0	31.0	31.0	87	27.6	0	0	---	0.00	30.182 
01:35	30.7	30.7	30.7	87	27.3	0	0	---	0.00	30.182 
01:40	30.6	30.6	30.6	87	27.2	0	0	---	0.00	30.182 
01:45	30.6	30.6	30.6	87	27.2	0	0	---	0.00	30.176 
01:50	30.4	30.4	30.4	87	27.0	0	0	---	0.00	30.176 
01:55	30.3	30.3	30.3	87	26.9	0	0	---	0.00	30.176 
02:00	30.3	30.3	30.3	88	27.2	0	0	---	0.00	30.177 
02:05	30.3	30.3	30.3	88	27.2	0	0	---	0.00	30.177 
02:10	30.3	30.3	30.3	88	27.2	0	0	---	0.00	30.177 
02:15	30.3	30.3	30.3	88	27.2	0	0	---	0.00	30.176 
02:20	30.3	30.3	30.3	88	27.2	0	0	---	0.00	30.176 
02:25	30.3	30.3	30.3	88	27.2	0	0	---	0.00	30.176 
02:30	30.3	30.3	30.3	88	27.2	0	0	---	0.00	30.176 
02:35	30.3	30.3	30.3	88	27.2	0	0	---	0.00	30.176 
02:40	30.1	30.1	30.1	88	27.0	0	0	---	0.00	30.176 
02:45	30.0	30.0	30.0	88	26.9	0	0	---	0.00	30.175 
02:50	30.0	30.0	30.0	88	26.9	0	0	---	0.00	30.175 
02:55	29.8	29.8	29.8	88	26.7	0	0	---	0.00	30.175 
03:00	29.8	29.8	29.8	88	26.7	0	0	---	0.00	30.176 
03:05	29.7	29.7	29.7	88	26.6	0	0	---	0.00	30.176 
03:10	29.5	29.5	29.5	89	26.7	0	0	---	0.00	30.176 
03:15	29.5	29.5	29.5	89	26.7	0	0	---	0.00	30.172 
03:20	29.4	29.4	29.4	89	26.6	0	0	---	0.00	30.172 
03:25	29.4	29.4	29.4	89	26.6	0	0	---	0.00	30.172 
03:30	29.3	29.3	29.3	89	26.5	0	0	---	0.00	30.173 
03:35	29.3	29.3	29.3	89	26.5	0	0	---	0.00	30.173 
03:40	29.3	29.3	29.3	89	26.5	0	0	---	0.00	30.173 
03:45	29.1	29.1	29.1	89	26.3	0	0	---	0.00	30.173 
03:50	29.1	29.1	29.1	89	26.3	0	0	---	0.00	30.173 
03:55	29.1	29.1	29.1	90	26.5	0	0	---	0.00	30.173 
04:00	29.1	29.1	29.1	90	26.5	0	0	---	0.00	30.175 
04:05	29.1	29.1	29.1	90	26.5	0	0	---	0.00	30.175 
04:10	29.1	29.1	29.1	90	26.5	0	0	---	0.00	30.175 
04:15	29.3	29.3	29.3	90	26.7	0	0	---	0.00	30.168 
04:20	29.3	29.3	29.3	90	26.7	0	0	---	0.00	30.168 
04:25	29.4	29.4	29.4	90	26.8	0	0	---	0.00	30.168 
04:30	29.5	29.5	29.5	90	26.9	0	0	---	0.00	30.161 
04:35	29.5	29.5	29.5	90	26.9	0	0	---	0.00	30.161 
04:40	29.5	29.5	29.5	90	26.9	0	0	---	0.00	30.161 
04:45	29.5	29.5	29.5	90	26.9	0	0	---	0.00	30.158 
04:50	29.5	29.5	29.5	90	26.9	0	0	---	0.00	30.158 
04:55	29.7	29.7	29.7	91	27.4	0	0	---	0.00	30.158 
05:00	29.8	29.8	29.8	91	27.5	0	0	---	0.00	30.156 
05:05	30.0	30.0	30.0	91	27.7	0	0	---	0.00	30.156 
05:10	30.0	30.0	30.0	91	27.7	0	0	---	0.00	30.156 
05:15	30.0	30.0	30.0	91	27.7	0	0	---	0.00	30.154 
05:20	30.0	30.0	30.0	91	27.7	0	0	---	0.00	30.154 
05:25	29.8	29.8	29.8	91	27.5	0	0	---	0.00	30.154 
05:30	29.7	29.7	29.7	90	27.1	0	0	---	0.00	30.156 
05:35	29.5	29.5	29.5	90	26.9	0	0	---	0.00	30.156 
05:40	29.4	29.4	29.4	91	27.1	0	0	---	0.00	30.156 
05:45	29.4	29.4	29.4	90	26.8	0	0	---	0.00	30.166 
05:50	29.3	29.3	29.3	90	26.7	0	0	---	0.00	30.166 
05:55	29.1	29.1	29.1	90	26.5	0	0	---	0.00	30.166 
06:00	29.0	29.0	29.0	90	26.4	0	0	---	0.00	30.173 
06:05	28.8	28.8	28.8	90	26.2	0	0	---	0.00	30.173 
06:10	28.7	28.7	28.7	90	26.1	0	0	---	0.00	30.173 
06:15	28.5	28.5	28.5	90	25.9	0	0	---	0.00	30.175 
06:20	28.4	28.4	28.4	91	26.1	0	0	---	0.00	30.175 
06:25	28.4	28.4	28.4	91	26.1	0	0	---	0.00	30.175 
06:30	28.4	28.4	28.4	91	26.1	0	0	---	0.00	30.187 
06:35	28.2	28.2	28.2	91	25.9	0	0	---	0.00	30.187 
06:40	28.1	28.1	28.1	91	25.8	0	0	---	0.00	30.187 
06:45	27.9	27.9	27.9	91	25.6	0	0	---	0.00	30.192 
06:50	27.9	27.9	27.9	91	25.6	0	0	---	0.00	30.192 
06:55	27.8	27.8	27.8	91	25.5	0	0	---	0.00	30.192 
07:00	27.6	27.6	27.6	91	25.3	0	0	---	0.00	30.197 
07:05	27.5	27.5	27.5	91	25.2	0	0	---	0.00	30.197 
07:10	27.3	27.3	27.3	91	25.0	0	0	---	0.00	30.197 
07:15	27.2	27.2	27.2	91	24.9	0	0	---	0.00	30.209 
07:20	27.0	27.0	27.0	91	24.7	0	0	---	0.00	30.209 
07:25	27.0	27.0	27.0	91	24.7	0	0	---	0.00	30.209 
07:30	27.0	27.0	27.0	91	24.7	0	0	---	0.00	30.208 
07:35	26.9	26.9	26.9	91	24.6	0	0	---	0.00	30.208 
07:40	26.9	26.9	26.9	91	24.6	0	0	---	0.00	30.208 
07:45	26.9	26.9	26.9	91	24.6	0	0	---	0.00	30.211 
07:50	27.3	27.3	27.3	92	25.3	0	1	90	0.00	30.211 
07:55	27.9	27.9	27.9	92	25.9	0	1	90	0.00	30.211 
08:00	28.4	28.4	28.4	92	26.4	0	1	90	0.00	30.211 
08:05	28.7	28.7	28.7	92	26.7	0	1	90	0.00	30.211 
08:10	29.0	29.0	29.0	92	27.0	0	2	90	0.00	30.211 
08:15	29.4	29.4	29.4	92	27.4	0	2	90	0.00	30.214 
08:20	29.7	29.7	29.7	92	27.7	0	2	90	0.00	30.214 
08:25	30.0	30.0	30.0	92	28.0	0	1	90	0.00	30.214 
08:30	30.1	30.1	30.1	92	28.1	0	0	---	0.00	30.221 
08:35	30.6	30.6	30.6	92	28.6	0	0	---	0.00	30.221 
08:40	31.0	31.0	31.0	92	29.0	0	1	90	0.00	30.221 
08:45	31.6	31.6	31.6	92	29.5	0	2	90	0.00	30.225 
08:50	32.1	32.1	32.1	91	29.8	0	2	90	0.00	30.225 
08:55	32.4	32.4	32.4	90	29.8	0	2	90	0.00	30.225 
09:00	32.7	32.7	32.7	89	29.8	0	1	90	0.00	30.230 
09:05	32.9	32.9	32.9	89	30.0	0	2	90	0.00	30.230 
09:10	33.2	33.2	33.2	88	30.0	0	2	90	0.00	30.230 
09:15	33.2	33.2	33.2	87	29.8	1	3	90	0.00	30.234 
09:20	33.5	33.5	33.5	87	30.1	0	1	90	0.00	30.234 
09:25	33.8	33.8	33.8	86	30.1	1	3	90	0.00	30.234 
09:30	34.0	34.0	34.0	86	30.3	1	4	90	0.00	30.232 
09:35	34.1	34.1	34.1	85	30.1	2	4	90	0.00	30.232 
09:40	34.4	34.4	34.4	85	30.4	0	2	90	0.00	30.232 
09:45	35.0	35.0	35.0	84	30.7	1	4	90	0.00	30.235 
09:50	35.8	35.8	35.8	83	31.2	1	3	158	0.00	30.235 
09:55	36.0	36.0	36.0	82	31.0	1	4	112	0.00	30.235 
10:00	36.5	36.5	36.5	81	31.2	1	4	112	0.00	30.236 
10:05	36.8	36.8	36.8	80	31.2	2	5	112	0.00	30.236 
10:10	36.8	36.8	36.8	81	31.5	2	4	112	0.00	30.236 
10:15	37.2	37.2	37.2	80	31.6	1	4	112	0.00	30.239 
10:20	37.6	37.6	37.6	79	31.7	1	5	112	0.00	30.239 
10:25	37.9	37.9	37.9	78	31.7	2	6	112	0.00	30.239 
10:30	38.3	38.3	38.3	78	32.1	1	6	90	0.00	30.236 
10:35	38.5	38.5	38.5	77	31.9	1	3	135	0.00	30.236 
10:40	38.8	38.8	38.8	77	32.2	1	3	112	0.00	30.236 
10:45	39.1	39.1	39.1	76	32.2	1	3	112	0.00	30.239 
10:50	39.3	39.3	39.3	76	32.4	0	3	112	0.00	30.239 
10:55	39.5	39.5	39.5	76	32.6	1	4	112	0.00	30.239 
11:00	39.8	39.8	39.8	74	32.2	1	5	90	0.00	30.240 
11:05	39.9	39.9	39.9	74	32.3	2	6	90	0.00	30.240 
11:10	40.2	40.2	40.2	75	32.9	2	5	112	0.00	30.240 
11:15	40.2	40.2	40.2	73	32.2	1	3	90	0.00	30.242 
11:20	40.2	40.2	40.2	75	32.9	2	5	90	0.00	30.242 
11:25	40.2	40.2	40.2	75	32.9	2	4	90	0.00	30.242 
11:30	40.5	40.5	40.5	75	33.2	1	5	112	0.00	30.243 
11:35	40.9	40.9	40.9	74	33.3	1	3	112	0.00	30.243 
11:40	40.8	40.8	40.8	74	33.2	2	6	112	0.00	30.243 
11:45	40.5	40.5	40.5	73	32.5	1	3	112	0.00	30.240 
11:50	40.5	40.5	40.5	75	33.2	2	9	90	0.00	30.240 
11:55	41.1	41.1	41.1	75	33.8	1	4	90	0.00	30.240 
12:00	41.2	41.2	41.2	74	33.6	1	4	112	0.00	30.235 
12:05	41.3	41.3	41.3	75	34.0	1	5	112	0.00	30.235 
12:10	41.5	41.5	41.5	73	33.5	2	7	90	0.00	30.235 
12:15	41.8	41.8	41.8	75	34.5	2	9	90	0.00	30.227 
12:20	42.5	42.5	42.5	73	34.5	2	5	112	0.00	30.227 
12:25	42.9	42.9	42.9	72	34.5	3	9	90	0.00	30.227 
12:30	42.9	42.9	42.9	72	34.5	2	7	90	0.00	30.217 
12:35	43.2	43.2	43.2	72	34.8	2	7	112	0.00	30.217 
12:40	43.3	43.3	43.3	73	35.2	3	9	90	0.00	30.217 
12:45	43.8	43.8	43.8	73	35.7	1	4	90	0.00	30.205 
12:50	43.9	43.9	43.9	71	35.1	3	9	112	0.00	30.205 
12:55	43.9	43.9	43.9	71	35.1	2	7	68	0.00	30.205 
13:00	44.3	44.3	44.3	73	36.2	1	4	68	0.00	30.200 
13:05	44.5	44.5	44.5	71	35.7	3	10	90	0.00	30.200 
13:10	44.3	44.3	44.3	72	35.9	2	5	68	0.00	30.200 
13:15	44.9	44.9	44.9	70	35.7	2	6	90	0.00	30.196 
13:20	45.2	45.2	45.2	71	36.4	3	7	112	0.00	30.196 
13:25	45.5	45.5	45.5	70	36.3	3	6	112	0.00	30.196 
13:30	45.7	45.7	45.7	70	36.5	2	6	112	0.00	30.193 
13:35	45.7	45.7	45.7	69	36.1	3	8	112	0.00	30.193 
13:40	45.8	45.8	45.8	70	36.6	1	4	90	0.00	30.193 
13:45	46.1	46.1	46.1	68	36.1	2	5	112	0.00	30.188 
13:50	46.4	46.4	46.4	69	36.8	1	6	112	0.00	30.188 
13:55	46.5	46.5	46.5	69	36.9	2	6	112	0.00	30.188 
14:00	46.8	46.8	46.8	68	36.8	2	5	90	0.00	30.188 
14:05	47.0	47.0	47.0	69	37.4	3	7	90	0.00	30.188 
14:10	47.4	47.4	47.4	68	37.4	2	5	90	0.00	30.188 
14:15	47.7	47.7	47.7	67	37.3	3	7	90	0.00	30.176 
14:20	47.9	47.9	47.9	68	37.9	2	8	112	0.00	30.176 
14:25	47.9	47.9	47.9	68	37.9	3	6	90	0.00	30.176 
14:30	47.9	47.9	47.9	69	38.2	2	6	90	0.00	30.168 
14:35	47.7	46.2	47.7	65	36.5	4	10	90	0.00	30.168 
14:40	47.9	47.9	47.9	67	37.5	2	6	68	0.00	30.168 
14:45	48.3	48.3	48.3	67	37.9	1	6	90	0.00	30.164 
14:50	48.6	48.6	48.6	65	37.4	3	11	90	0.00	30.164 
14:55	49.1	49.1	49.1	67	38.6	2	11	90	0.00	30.164 
15:00	49.5	49.5	49.5	65	38.2	1	4	90	0.00	30.162 
15:05	49.8	49.8	49.8	63	37.7	2	7	112	0.00	30.162 
15:10	49.6	49.6	49.6	65	38.3	3	7	90	0.00	30.162 
15:15	49.6	49.6	49.6	64	37.9	3	7	112	0.00	30.159 
15:20	49.8	49.8	49.8	62	37.3	2	7	112	0.00	30.159 
15:25	49.9	49.9	49.9	65	38.6	1	5	112	0.00	30.159 
15:30	50.2	50.2	50.2	64	38.5	2	5	112	0.00	30.154 
15:35	50.2	50.2	50.2	63	38.1	3	10	90	0.00	30.154 
15:40	50.2	50.2	50.2	65	38.9	2	6	90	0.00	30.154 
15:45	50.7	50.7	50.7	64	39.0	3	6	90	0.00	30.150 
15:50	50.8	50.8	50.8	63	38.7	2	7	90	0.00	30.150 
15:55	50.8	50.8	50.8	62	38.3	3	9	90	0.00	30.150 
16:00	50.8	50.8	50.8	65	39.5	2	5	90	0.00	30.147 
16:05	51.0	51.0	51.0	61	38.0	4	8	90	0.00	30.147 
16:10	51.0	51.0	51.0	62	38.4	3	9	112	0.00	30.147 
16:15	51.3	51.3	51.3	62	38.7	2	8	90	0.00	30.147 
16:20	51.4	51.4	51.4	60	38.0	2	9	90	0.00	30.147 
16:25	51.4	51.4	51.4	62	38.8	4	9	90	0.00	30.147 
16:30	51.6	51.6	51.6	60	38.2	3	7	112	0.00	30.146 
16:35	51.4	51.4	51.4	60	38.0	3	9	90	0.00	30.146 
16:40	51.6	51.6	51.6	59	37.7	2	7	112	0.00	30.146 
16:45	51.7	51.7	51.7	59	37.8	4	7	90	0.00	30.138 
16:50	51.7	51.7	51.7	58	37.4	3	11	90	0.00	30.138 
16:55	51.9	51.9	51.9	60	38.5	3	7	90	0.00	30.138 
17:00	51.9	51.9	51.9	58	37.6	2	7	90	0.00	30.141 
17:05	51.9	51.9	51.9	58	37.6	3	10	90	0.00	30.141 
17:10	52.0	52.0	52.0	58	37.7	3	6	112	0.00	30.141 
17:15	52.2	52.2	52.2	58	37.9	4	10	90	0.00	30.140 
17:20	52.2	52.2	52.2	59	38.3	2	6	112	0.00	30.140 
17:25	52.2	52.2	52.2	58	37.9	3	10	112	0.00	30.140 
17:30	52.2	52.2	52.2	58	37.9	2	6	90	0.00	30.136 
17:35	52.3	52.3	52.3	58	38.0	3	7	90	0.00	30.136 
17:40	52.3	52.3	52.3	58	38.0	3	8	112	0.00	30.136 
17:45	52.3	52.3	52.3	59	38.4	2	5	90	0.00	30.136 
17:50	52.3	52.3	52.3	59	38.4	2	6	90	0.00	30.136 
17:55	52.3	52.3	52.3	59	38.4	3	7	90	0.00	30.136 
18:00	52.3	52.3	52.3	58	38.0	4	9	112	0.00	30.132 
18:05	52.3	52.3	52.3	59	38.4	3	7	90	0.00	30.132 
18:10	52.2	52.2	52.2	59	38.3	3	7	112	0.00	30.132 
18:15	52.2	52.2	52.2	59	38.3	3	8	112	0.00	30.133 
18:20	52.0	52.0	52.0	60	38.5	3	7	90	0.00	30.133 
18:25	51.9	51.9	51.9	60	38.5	4	9	90	0.00	30.133 
18:30	51.9	51.9	51.9	60	38.5	3	9	90	0.00	30.134 
18:35	51.7	51.7	51.7	61	38.7	3	7	90	0.00	30.134 
18:40	51.6	51.6	51.6	61	38.6	3	7	90	0.00	30.134 
18:45	51.6	51.6	51.6	61	38.6	3	7	90	0.00	30.139 
18:50	51.4	51.4	51.4	62	38.8	4	7	112	0.00	30.139 
18:55	51.3	51.3	51.3	62	38.7	4	9	112	0.00	30.139 
19:00	51.1	51.1	51.1	62	38.5	3	6	90	0.00	30.140 
19:05	51.1	51.1	51.1	62	38.5	3	6	112	0.00	30.140 
19:10	51.0	51.0	51.0	63	38.9	3	6	90	0.00	30.140 
19:15	50.8	50.8	50.8	63	38.7	3	6	90	0.00	30.137 
19:20	50.7	50.7	50.7	64	39.0	3	10	90	0.00	30.137 
19:25	50.5	50.5	50.5	64	38.8	2	7	90	0.00	30.137 
19:30	50.2	50.2	50.2	64	38.5	3	6	90	0.00	30.140 
19:35	50.1	50.1	50.1	65	38.8	2	5	90	0.00	30.140 
19:40	49.8	49.8	49.8	65	38.5	3	7	90	0.00	30.140 
19:45	49.6	49.6	49.6	66	38.7	2	4	90	0.00	30.152 
19:50	49.4	49.4	49.4	67	38.9	2	5	90	0.00	30.152 
19:55	49.1	49.1	49.1	68	39.0	1	4	90	0.00	30.152 
20:00	48.8	48.8	48.8	68	38.7	1	4	90	0.00	30.151 
20:05	48.5	48.5	48.5	69	38.8	1	4	90	0.00	30.151 
20:10	48.2	48.2	48.2	70	38.9	2	5	90	0.00	30.151 
20:15	47.9	47.9	47.9	71	39.0	2	5	90	0.00	30.138 
20:20	47.6	47.6	47.6	71	38.7	1	4	90	0.00	30.138 
20:25	47.4	47.4	47.4	72	38.8	2	7	90	0.00	30.138 
20:30	47.1	47.1	47.1	73	38.9	1	4	90	0.00	30.135 
20:35	47.0	47.0	47.0	73	38.8	1	4	90	0.00	30.135 
20:40	46.7	46.7	46.7	74	38.9	0	3	90	0.00	30.135 
20:45	46.4	46.4	46.4	74	38.6	1	2	90	0.00	30.135 
20:50	46.1	46.1	46.1	75	38.6	1	3	90	0.00	30.135 
20:55	46.0	46.0	46.0	75	38.5	1	3	90	0.00	30.135 
21:00	45.7	45.7	45.7	75	38.2	1	3	90	0.00	30.135 
21:05	45.5	45.5	45.5	76	38.4	1	4	90	0.00	30.135 
21:10	45.4	45.4	45.4	76	38.3	1	2	90	0.00	30.135 
21:15	45.2	45.2	45.2	77	38.4	0	2	90	0.00	30.123 
21:20	45.1	45.1	45.1	77	38.3	1	4	90	0.00	30.123 
21:25	44.8	44.8	44.8	77	38.0	1	3	90	0.00	30.123 
21:30	44.6	44.6	44.6	77	37.8	0	3	90	0.00	30.126 
21:35	44.5	44.5	44.5	77	37.7	0	2	90	0.00	30.126 
21:40	44.2	44.2	44.2	78	37.8	0	2	90	0.00	30.126 
21:45	44.1	44.1	44.1	78	37.7	1	3	90	0.00	30.123 
21:50	43.9	43.9	43.9	79	37.8	0	2	90	0.00	30.123 
21:55	43.8	43.8	43.8	79	37.7	0	2	90	0.00	30.123 
22:00	43.6	43.6	43.6	79	37.5	1	4	90	0.00	30.132 
22:05	43.6	43.6	43.6	79	37.5	2	6	90	0.00	30.132 
22:10	43.6	43.6	43.6	79	37.5	2	4	90	0.00	30.132 
22:15	43.5	43.5	43.5	80	37.7	1	4	90	0.00	30.129 
22:20	43.2	43.2	43.2	81	37.8	1	3	90	0.00	30.129 
22:25	42.9	42.9	42.9	81	37.5	2	4	90	0.00	30.129 
22:30	42.8	42.8	42.8	82	37.7	2	6	112	0.00	30.127 
22:35	42.5	42.5	42.5	83	37.7	2	5	90	0.00	30.127 
22:40	42.2	42.2	42.2	83	37.4	3	7	112	0.00	30.127 
22:45	42.1	42.1	42.1	84	37.6	2	6	90	0.00	30.120 
22:50	41.8	41.8	41.8	84	37.3	1	3	68	0.00	30.120 
22:55	41.5	41.5	41.5	84	37.0	1	2	68	0.00	30.120 
23:00	41.2	41.2	41.2	85	37.0	1	4	68	0.00	30.125 
23:05	40.9	40.9	40.9	85	36.7	1	3	68	0.00	30.125 
23:10	40.6	40.6	40.6	85	36.4	1	3	68	0.00	30.125 
23:15	40.5	40.5	40.5	86	36.6	1	3	68	0.00	30.126 
23:20	40.2	40.2	40.2	86	36.4	2	5	68	0.00	30.126 
23:25	40.1	40.1	40.1	86	36.3	2	5	90	0.00	30.126 
23:30	39.8	39.8	39.8	86	36.0	2	4	90	0.00	30.127 
23:35	39.6	39.6	39.6	86	35.8	2	6	90	0.00	30.127 
23:40	39.5	39.5	39.5	86	35.7	2	7	112	0.00	30.127 
23:45	39.3	39.3	39.3	86	35.5	3	5	90	0.00	30.123 
23:50	39.2	39.2	39.2	86	35.4	2	4	90	0.00	30.123 
23:55	39.1	39.1	39.1	87	35.6	2	5	90	0.00	30.123 

CoCoRaHS
IN-AL-39
A2 Web Hosting
Creative Commons License
GoDaddy
search engine by freefind advanced

loaded 2018-11-20 03:23:12 • last modified 2010-11-18 10:43:29
Privacy PolicyDisclaimer
• wx.awcolley.com is powered by PmWiki v.2002016 •
• all content (unless otherwise noted) © 2018 A W Colley